Time;durP1;ratioP1;P1;durP2;ratioP2;P2;SDS_P1;SDS_P2;PMS_P1;PMS_P2;Temp;Humidity;BMP_temperature;BMP_pressure;BME280_temperature;BME280_humidity;BME280_pressure;Samples;Min_cycle;Max_cycle;Signal;HPM_P1;HPM_P2
2022/02/02 00:00:44;;;;;;;;;;;6.90;99.90;;;;;;5216828;27;20059;-84
2022/02/02 00:03:17;;;;;;;;;;;6.90;99.90;;;;;;5217032;27;20008;-84
2022/02/02 00:19:08;;;;;;;;;;;6.90;99.90;;;;;;5215686;27;19996;-84
2022/02/02 00:24:20;;;;;;;;;;;6.90;99.90;;;;;;5215427;27;19992;-84
2022/02/02 00:26:50;;;;;;;;;;;6.90;99.90;;;;;;5216097;27;20051;-84
2022/02/02 00:29:21;;;;;;;;;;;6.90;99.90;;;;;;5198461;27;19992;-83
2022/02/02 00:32:03;;;;;;;;;;;6.90;99.90;;;;;;5217170;27;20039;-85
2022/02/02 00:34:33;;;;;;;;;;;6.90;99.90;;;;;;5216062;27;20039;-85
2022/02/02 00:37:03;;;;;;;;;;;6.90;99.90;;;;;;5215284;27;20084;-85
2022/02/02 00:39:30;;;;;;;;;;;6.90;99.90;;;;;;5198081;27;20443;-84
2022/02/02 00:42:03;;;;;;;;;;;6.90;99.90;;;;;;5198879;27;20031;-84
2022/02/02 00:44:34;;;;;;;;;;;6.90;99.90;;;;;;5197881;27;20098;-84
2022/02/02 00:47:07;;;;;;;;;;;6.90;99.90;;;;;;5198700;27;19998;-84
2022/02/02 00:49:41;;;;;;;;;;;6.90;99.90;;;;;;5198298;27;20423;-84
2022/02/02 00:52:10;;;;;;;;;;;6.90;99.90;;;;;;5198237;27;20412;-84
2022/02/02 00:54:43;;;;;;;;;;;6.90;99.90;;;;;;5215335;27;20347;-84
2022/02/02 00:57:10;;;;;;;;;;;6.90;99.90;;;;;;5198104;27;20067;-84
2022/02/02 00:59:40;;;;;;;;;;;6.90;99.90;;;;;;5216400;27;20074;-84
2022/02/02 01:02:10;;;;;;;;;;;6.90;99.90;;;;;;5197745;27;20031;-84
2022/02/02 01:04:43;;;;;;;;;;;6.90;99.90;;;;;;5197159;27;19988;-85
2022/02/02 01:10:12;;;;;;;;;;;6.90;99.90;;;;;;5215364;27;20002;-84
2022/02/02 01:21:06;;;;;;;;;;;6.90;99.90;;;;;;5227424;27;20041;-84
2022/02/02 01:29:09;;;;;;;;;;;6.90;99.90;;;;;;5171592;27;39719;-84
2022/02/02 01:31:39;;;;;;;;;;;6.90;99.90;;;;;;5197455;27;27922;-85
2022/02/02 01:34:06;;;;;;;;;;;6.90;99.90;;;;;;5214571;27;20540;-85
2022/02/02 01:36:39;;;;;;;;;;;6.90;99.90;;;;;;5197960;27;22194;-85
2022/02/02 01:39:10;;;;;;;;;;;6.90;99.90;;;;;;5195898;27;37088;-85
2022/02/02 01:41:41;;;;;;;;;;;6.90;99.90;;;;;;5216049;27;20035;-84
2022/02/02 01:44:17;;;;;;;;;;;6.90;99.90;;;;;;5196414;27;39569;-85
2022/02/02 01:46:47;;;;;;;;;;;6.90;99.90;;;;;;5196677;27;34162;-85
2022/02/02 01:50:02;;;;;;;;;;;6.90;99.90;;;;;;5196621;27;33576;-84
2022/02/02 01:54:54;;;;;;;;;;;6.90;99.90;;;;;;5214870;27;19996;-85
2022/02/02 01:59:54;;;;;;;;;;;6.90;99.90;;;;;;5213823;27;37797;-83
2022/02/02 02:02:27;;;;;;;;;;;6.90;99.90;;;;;;5214005;27;24375;-85
2022/02/02 02:04:57;;;;;;;;;;;6.90;99.90;;;;;;5213738;27;37028;-85
2022/02/02 02:07:27;;;;;;;;;;;6.90;99.90;;;;;;5197549;27;19984;-85
2022/02/02 02:10:00;;;;;;;;;;;6.90;99.90;;;;;;5216944;27;20006;-84
2022/02/02 02:15:40;;;;;;;;;;;6.90;99.90;;;;;;5179567;27;35813;-84
2022/02/02 02:18:10;;;;;;;;;;;6.90;99.90;;;;;;5196905;27;32125;-84
2022/02/02 02:20:42;;;;;;;;;;;6.90;99.90;;;;;;5213998;27;30365;-85
2022/02/02 02:23:12;;;;;;;;;;;6.90;99.90;;;;;;5196512;27;36910;-84
2022/02/02 02:25:41;;;;;;;;;;;6.90;99.90;;;;;;5214879;27;27771;-84
2022/02/02 02:28:41;;;;;;;;;;;6.90;99.90;;;;;;5216287;27;37349;-84
2022/02/02 02:31:01;;;;;;;;;;;6.90;99.90;;;;;;5217098;27;30810;-84
2022/02/02 02:36:35;;;;;;;;;;;7.00;99.90;;;;;;5215018;27;40745;-84
2022/02/02 02:39:51;;;;;;;;;;;6.90;99.90;;;;;;5217461;27;20037;-84
2022/02/02 03:58:32;;;;;;;;;;;7.00;99.90;;;;;;5214465;27;38352;-84
2022/02/02 04:01:17;;;;;;;;;;;7.00;99.90;;;;;;5196951;27;36577;-84
2022/02/02 04:06:23;;;;;;;;;;;7.00;99.90;;;;;;5216190;27;23365;-85
2022/02/02 04:08:51;;;;;;;;;;;7.00;99.90;;;;;;5215511;27;26432;-85
2022/02/02 04:11:50;;;;;;;;;;;7.00;99.90;;;;;;5197638;27;22902;-84
2022/02/02 04:55:54;;;;;;;;;;;7.00;99.90;;;;;;5216084;27;35376;-84
2022/02/02 05:03:59;;;;;;;;;;;7.00;99.90;;;;;;5215534;27;31649;-84
2022/02/02 05:09:16;;;;;;;;;;;7.00;99.90;;;;;;5214955;27;20336;-84
2022/02/02 05:41:35;;;;;;;;;;;7.00;99.90;;;;;;5214048;27;36032;-84
2022/02/02 05:51:55;;;;;;;;;;;7.00;99.90;;;;;;5213643;27;42286;-84
2022/02/02 05:54:24;;;;;;;;;;;7.00;99.90;;;;;;5215670;27;43230;-84
2022/02/02 05:56:53;;;;;;;;;;;7.00;99.90;;;;;;5213889;27;38826;-84
2022/02/02 05:59:25;;;;;;;;;;;7.00;99.90;;;;;;5196695;27;35234;-85
2022/02/02 06:01:57;;;;;;;;;;;7.10;99.90;;;;;;5214673;27;38901;-85
2022/02/02 06:04:29;;;;;;;;;;;7.10;99.90;;;;;;5217070;27;20410;-84
2022/02/02 06:07:02;;;;;;;;;;;7.00;99.90;;;;;;5198706;27;19992;-85
2022/02/02 06:09:36;;;;;;;;;;;7.00;99.90;;;;;;5216693;27;40273;-85
2022/02/02 06:12:04;;;;;;;;;;;7.00;99.90;;;;;;5199309;27;20023;-85
2022/02/02 06:14:36;;;;;;;;;;;7.00;99.90;;;;;;5216450;27;35788;-85
2022/02/02 06:17:08;;;;;;;;;;;7.00;99.90;;;;;;5216692;27;39075;-85
2022/02/02 06:19:37;;;;;;;;;;;7.00;99.90;;;;;;5198206;27;30270;-84
2022/02/02 06:22:07;;;;;;;;;;;7.00;99.90;;;;;;5215437;27;32457;-85
2022/02/02 06:24:41;;;;;;;;;;;7.10;99.90;;;;;;5214847;27;46001;-85
2022/02/02 06:27:11;;;;;;;;;;;7.00;99.90;;;;;;5216032;27;21604;-84
2022/02/02 06:29:43;;;;;;;;;;;7.00;99.90;;;;;;5198692;27;20000;-84
2022/02/02 06:32:14;;;;;;;;;;;7.10;99.90;;;;;;5199337;27;20028;-84
2022/02/02 06:34:45;;;;;;;;;;;7.00;99.90;;;;;;5216808;27;20002;-84
2022/02/02 06:37:13;;;;;;;;;;;7.10;99.90;;;;;;5218367;27;20035;-85
2022/02/02 06:39:50;;;;;;;;;;;7.00;99.90;;;;;;5216950;27;19996;-84
2022/02/02 06:42:20;;;;;;;;;;;7.00;99.90;;;;;;5199295;27;20031;-84
2022/02/02 06:44:48;;;;;;;;;;;7.10;99.90;;;;;;5199094;27;20031;-84
2022/02/02 06:47:20;;;;;;;;;;;7.10;99.90;;;;;;5217947;27;20014;-84
2022/02/02 06:49:49;;;;;;;;;;;7.10;99.90;;;;;;5199083;27;20409;-84
2022/02/02 06:52:28;;;;;;;;;;;7.00;99.90;;;;;;5215941;27;20373;-84
2022/02/02 06:55:06;;;;;;;;;;;7.00;99.90;;;;;;5216565;27;19991;-84
2022/02/02 06:57:49;;;;;;;;;;;7.10;99.90;;;;;;5217958;27;20043;-84
2022/02/02 07:00:33;;;;;;;;;;;7.00;99.90;;;;;;5198448;27;20024;-84
2022/02/02 07:03:43;;;;;;;;;;;7.00;99.90;;;;;;5215110;27;19995;-84
2022/02/02 07:06:34;;;;;;;;;;;7.10;99.90;;;;;;5215540;27;19996;-84
2022/02/02 07:12:01;;;;;;;;;;;7.10;99.90;;;;;;5216161;27;19987;-84
2022/02/02 07:14:50;;;;;;;;;;;7.10;99.90;;;;;;5216301;27;20010;-84
2022/02/02 07:17:36;;;;;;;;;;;7.10;99.90;;;;;;5198276;27;19992;-84
2022/02/02 07:23:13;;;;;;;;;;;7.10;99.90;;;;;;5215875;27;20004;-84
2022/02/02 07:33:33;;;;;;;;;;;7.10;99.90;;;;;;5217352;27;20000;-84
2022/02/02 07:36:10;;;;;;;;;;;7.00;99.90;;;;;;5216333;27;19996;-84
2022/02/02 07:38:45;;;;;;;;;;;7.10;99.90;;;;;;5198645;27;20007;-84
2022/02/02 07:41:21;;;;;;;;;;;7.10;99.90;;;;;;5198483;27;20404;-84
2022/02/02 07:43:48;;;;;;;;;;;7.10;99.90;;;;;;5198373;27;20007;-84
2022/02/02 07:46:17;;;;;;;;;;;7.10;99.90;;;;;;5216339;27;19999;-84
2022/02/02 07:48:47;;;;;;;;;;;7.10;99.90;;;;;;5198299;27;19988;-84
2022/02/02 07:51:15;;;;;;;;;;;7.10;99.90;;;;;;5215714;27;20079;-84
2022/02/02 07:53:47;;;;;;;;;;;7.10;99.90;;;;;;5197986;27;19994;-84
2022/02/02 07:56:41;;;;;;;;;;;7.10;99.90;;;;;;5215140;27;42131;-85
2022/02/02 08:01:44;;;;;;;;;;;7.10;99.90;;;;;;5214628;27;39892;-84
2022/02/02 08:04:13;;;;;;;;;;;7.10;99.90;;;;;;5201148;27;20002;-84
2022/02/02 08:06:42;;;;;;;;;;;7.10;99.90;;;;;;5218037;27;22310;-84
2022/02/02 08:09:16;;;;;;;;;;;7.10;99.90;;;;;;5218950;27;20005;-84
2022/02/02 08:11:43;;;;;;;;;;;7.10;99.90;;;;;;5201073;27;19991;-84
2022/02/02 08:14:29;;;;;;;;;;;7.10;99.90;;;;;;5202005;27;35334;-84
2022/02/02 08:16:56;;;;;;;;;;;7.10;99.90;;;;;;5216944;27;34909;-84
2022/02/02 08:19:23;;;;;;;;;;;7.10;99.90;;;;;;5217906;27;28179;-85
2022/02/02 08:21:50;;;;;;;;;;;7.10;99.90;;;;;;5199253;27;43177;-85
2022/02/02 08:24:19;;;;;;;;;;;7.10;99.90;;;;;;5200064;27;19995;-84
2022/02/02 08:26:46;;;;;;;;;;;7.10;99.90;;;;;;5217487;27;26532;-85
2022/02/02 08:29:14;;;;;;;;;;;7.10;99.90;;;;;;5199255;27;43549;-85
2022/02/02 08:31:41;;;;;;;;;;;7.10;99.90;;;;;;5199385;27;43477;-84
2022/02/02 08:34:10;;;;;;;;;;;7.10;99.90;;;;;;5200657;27;19991;-84
2022/02/02 08:36:46;;;;;;;;;;;7.10;99.90;;;;;;5200501;27;39857;-85
2022/02/02 08:41:48;;;;;;;;;;;7.10;99.90;;;;;;5216972;27;37271;-85
2022/02/02 08:44:21;;;;;;;;;;;7.10;99.90;;;;;;5199427;27;45365;-84
2022/02/02 08:47:12;;;;;;;;;;;7.10;99.90;;;;;;5236691;27;37584;-84
2022/02/02 08:49:48;;;;;;;;;;;7.10;99.90;;;;;;5217785;27;26195;-84
2022/02/02 08:52:17;;;;;;;;;;;7.10;99.90;;;;;;5199622;27;37727;-84
2022/02/02 08:54:45;;;;;;;;;;;7.10;99.90;;;;;;5199200;27;39647;-84
2022/02/02 08:57:30;;;;;;;;;;;7.20;99.90;;;;;;5199999;27;44665;-84
2022/02/02 09:00:00;;;;;;;;;;;7.20;99.90;;;;;;5199447;27;41945;-83
2022/02/02 09:02:33;;;;;;;;;;;7.10;99.90;;;;;;5217766;27;19999;-83
2022/02/02 09:05:24;;;;;;;;;;;7.20;99.90;;;;;;5218634;27;42133;-84
2022/02/02 09:08:13;;;;;;;;;;;7.20;99.90;;;;;;5204091;27;20367;-84
2022/02/02 09:24:29;;;;;;;;;;;7.20;99.90;;;;;;5217500;27;43049;-84
2022/02/02 09:32:56;;;;;;;;;;;7.20;99.90;;;;;;5218274;27;27503;-84
2022/02/02 09:35:29;;;;;;;;;;;7.30;99.90;;;;;;5218274;27;30950;-84
2022/02/02 09:37:56;;;;;;;;;;;7.20;99.90;;;;;;5202442;27;20123;-84
2022/02/02 09:42:59;;;;;;;;;;;7.20;99.90;;;;;;5219878;27;20038;-84
2022/02/02 09:45:32;;;;;;;;;;;7.30;99.90;;;;;;5220739;27;35552;-84
2022/02/02 09:48:09;;;;;;;;;;;7.30;99.90;;;;;;5219717;27;36809;-84
2022/02/02 09:50:45;;;;;;;;;;;7.30;99.90;;;;;;5201862;27;34409;-85
2022/02/02 09:53:19;;;;;;;;;;;7.30;99.90;;;;;;5201471;27;43605;-84
2022/02/02 10:07:22;;;;;;;;;;;7.30;99.90;;;;;;5220532;27;20020;-84
2022/02/02 10:10:15;;;;;;;;;;;7.30;99.90;;;;;;5201269;27;40025;-84
2022/02/02 10:16:00;;;;;;;;;;;7.30;99.90;;;;;;5226825;27;39936;-84
2022/02/02 10:18:29;;;;;;;;;;;7.30;99.90;;;;;;5219548;27;27510;-84
2022/02/02 10:20:56;;;;;;;;;;;7.30;99.90;;;;;;5201497;27;26822;-84
2022/02/02 10:23:25;;;;;;;;;;;7.30;99.90;;;;;;5219421;27;20005;-84
2022/02/02 10:25:59;;;;;;;;;;;7.30;99.90;;;;;;5219574;27;31786;-84
2022/02/02 10:28:30;;;;;;;;;;;7.30;99.90;;;;;;5219899;27;30957;-83
2022/02/02 10:31:02;;;;;;;;;;;7.40;99.90;;;;;;5202173;27;20047;-84
2022/02/02 10:33:30;;;;;;;;;;;7.30;99.90;;;;;;5220217;27;19996;-84
2022/02/02 10:36:22;;;;;;;;;;;7.40;99.90;;;;;;5201829;27;40617;-84
2022/02/02 10:39:09;;;;;;;;;;;7.30;99.90;;;;;;5201116;27;42451;-84
2022/02/02 10:42:00;;;;;;;;;;;7.40;99.90;;;;;;5201731;27;43112;-84
2022/02/02 10:44:40;;;;;;;;;;;7.40;99.90;;;;;;5238317;27;31192;-84
2022/02/02 10:47:37;;;;;;;;;;;7.40;99.90;;;;;;5219808;27;21178;-84
2022/02/02 10:50:34;;;;;;;;;;;7.40;99.90;;;;;;5235874;27;20414;-84
2022/02/02 10:59:06;;;;;;;;;;;7.40;99.90;;;;;;5239625;27;20391;-84
2022/02/02 11:06:37;;;;;;;;;;;7.40;99.90;;;;;;5219824;27;20045;-84
2022/02/02 11:07:13;;;;;;;;;;;7.40;99.90;;;;;;5219435;27;20046;-83
2022/02/02 11:09:48;;;;;;;;;;;7.40;99.90;;;;;;5202356;27;20396;-84
2022/02/02 11:12:28;;;;;;;;;;;7.40;99.90;;;;;;5220252;27;20396;-84
2022/02/02 11:15:11;;;;;;;;;;;7.40;99.90;;;;;;5203011;27;20403;-84
2022/02/02 11:17:58;;;;;;;;;;;7.40;99.90;;;;;;5220033;27;20028;-85
2022/02/02 11:20:36;;;;;;;;;;;7.40;99.90;;;;;;5219765;27;20051;-85
2022/02/02 11:23:09;;;;;;;;;;;7.50;99.90;;;;;;5202571;27;20035;-84
2022/02/02 11:25:47;;;;;;;;;;;7.50;99.90;;;;;;5220044;27;20036;-84
2022/02/02 11:28:22;;;;;;;;;;;7.50;99.90;;;;;;5220329;27;20408;-84
2022/02/02 11:31:04;;;;;;;;;;;7.50;99.90;;;;;;5220311;27;20392;-84
2022/02/02 11:33:41;;;;;;;;;;;7.50;99.90;;;;;;5219412;27;20032;-84
2022/02/02 11:36:20;;;;;;;;;;;7.50;99.90;;;;;;5202174;27;20380;-84
2022/02/02 11:38:55;;;;;;;;;;;7.50;99.90;;;;;;5219996;27;20042;-84
2022/02/02 11:41:55;;;;;;;;;;;7.50;99.90;;;;;;5202476;27;20001;-84
2022/02/02 11:44:52;;;;;;;;;;;7.50;99.90;;;;;;5219997;27;19995;-84
2022/02/02 11:47:49;;;;;;;;;;;7.50;99.90;;;;;;5223731;27;20011;-84
2022/02/02 11:50:41;;;;;;;;;;;7.50;99.90;;;;;;5219406;27;19995;-84
2022/02/02 11:53:28;;;;;;;;;;;7.60;99.90;;;;;;5202353;27;19987;-84
2022/02/02 11:56:05;;;;;;;;;;;7.50;99.90;;;;;;5218550;27;19992;-83
2022/02/02 11:58:34;;;;;;;;;;;7.50;99.90;;;;;;5201442;27;20350;-83
2022/02/02 12:01:10;;;;;;;;;;;7.50;99.90;;;;;;5201989;27;20012;-83
2022/02/02 12:18:56;;;;;;;;;;;7.60;99.90;;;;;;5216580;27;35718;-83
2022/02/02 12:46:40;;;;;;;;;;;7.60;99.90;;;;;;5215102;27;20107;-83
2022/02/02 12:49:36;;;;;;;;;;;7.60;99.90;;;;;;5216533;27;20045;-83
2022/02/02 12:57:02;;;;;;;;;;;7.60;99.90;;;;;;5215177;27;20003;-84
2022/02/02 13:02:16;;;;;;;;;;;7.60;99.90;;;;;;5216261;27;20006;-84
2022/02/02 13:04:44;;;;;;;;;;;7.60;99.90;;;;;;5215724;27;20035;-84
2022/02/02 13:07:20;;;;;;;;;;;7.70;99.90;;;;;;5216091;27;19996;-84
2022/02/02 13:09:57;;;;;;;;;;;7.70;99.90;;;;;;5197850;27;20448;-83
2022/02/02 13:12:33;;;;;;;;;;;7.70;99.90;;;;;;5217216;27;20000;-84
2022/02/02 13:15:35;;;;;;;;;;;7.70;99.90;;;;;;5216641;27;20063;-84
2022/02/02 13:18:16;;;;;;;;;;;7.70;99.90;;;;;;5206236;27;20355;-83
2022/02/02 13:21:06;;;;;;;;;;;7.70;99.90;;;;;;5215738;27;20428;-83
2022/02/02 13:23:53;;;;;;;;;;;7.70;99.90;;;;;;5215216;27;19996;-84
2022/02/02 13:32:08;;;;;;;;;;;7.70;99.90;;;;;;5214640;27;20045;-85
2022/02/02 13:34:50;;;;;;;;;;;7.70;99.90;;;;;;5215359;27;20027;-85
2022/02/02 13:37:43;;;;;;;;;;;7.70;99.90;;;;;;5214423;27;34346;-84
2022/02/02 14:01:45;;;;;;;;;;;7.70;99.90;;;;;;5216143;27;19999;-84
2022/02/02 14:07:13;;;;;;;;;;;7.70;99.90;;;;;;5216111;27;20000;-84
2022/02/02 14:31:45;;;;;;;;;;;7.80;99.90;;;;;;5215859;27;19996;-84
2022/02/02 14:34:37;;;;;;;;;;;7.80;99.90;;;;;;5216700;27;20008;-84
2022/02/02 14:37:12;;;;;;;;;;;7.80;99.90;;;;;;5197390;27;37299;-84
2022/02/02 14:40:12;;;;;;;;;;;7.80;99.90;;;;;;5197463;27;43984;-84
2022/02/02 14:42:36;;;;;;;;;;;7.80;99.90;;;;;;5194953;27;20431;-84
2022/02/02 14:45:12;;;;;;;;;;;7.80;99.90;;;;;;5177103;27;20004;-83
2022/02/02 14:47:51;;;;;;;;;;;7.80;99.90;;;;;;5195119;27;26344;-84
2022/02/02 14:50:29;;;;;;;;;;;7.80;99.90;;;;;;5194803;27;27818;-84
2022/02/02 15:29:26;;;;;;;;;;;7.80;99.90;;;;;;5194369;27;20007;-84
2022/02/02 15:31:57;;;;;;;;;;;7.80;99.90;;;;;;5177209;27;20028;-84
2022/02/02 15:34:42;;;;;;;;;;;7.80;99.90;;;;;;5193611;27;44542;-84
2022/02/02 15:37:24;;;;;;;;;;;7.80;99.90;;;;;;5195244;27;35219;-84
2022/02/02 15:58:40;;;;;;;;;;;7.90;99.90;;;;;;5214721;27;20040;-84
2022/02/02 16:03:54;;;;;;;;;;;7.90;99.90;;;;;;5194412;27;19996;-84
2022/02/02 16:06:26;;;;;;;;;;;7.80;99.90;;;;;;5194804;27;20392;-84
2022/02/02 16:09:17;;;;;;;;;;;7.90;99.90;;;;;;5249957;27;20007;-84
2022/02/02 16:11:46;;;;;;;;;;;7.80;99.90;;;;;;5194925;27;19996;-84
2022/02/02 16:14:24;;;;;;;;;;;7.90;99.90;;;;;;5193750;27;37517;-85
2022/02/02 16:17:19;;;;;;;;;;;7.90;99.90;;;;;;5193350;27;43257;-84
2022/02/02 16:34:44;;;;;;;;;;;7.90;99.90;;;;;;5194682;27;42802;-84
2022/02/02 16:37:04;;;;;;;;;;;7.90;99.90;;;;;;5191299;27;25296;-84
2022/02/02 16:39:50;;;;;;;;;;;7.90;99.90;;;;;;5175847;27;32658;-84
2022/02/02 16:45:04;;;;;;;;;;;7.90;99.90;;;;;;5192711;27;43983;-84
2022/02/02 16:47:37;;;;;;;;;;;7.90;99.90;;;;;;5194317;27;19993;-84
2022/02/02 16:50:13;;;;;;;;;;;7.90;99.90;;;;;;5176609;27;31541;-84
2022/02/02 16:52:48;;;;;;;;;;;7.90;99.90;;;;;;5175249;27;41478;-84
2022/02/02 16:55:34;;;;;;;;;;;7.90;99.90;;;;;;5175768;27;34170;-84
2022/02/02 17:24:13;;;;;;;;;;;7.90;99.90;;;;;;5194523;27;19992;-84
2022/02/02 17:29:47;;;;;;;;;;;7.90;99.90;;;;;;5194134;27;20439;-81
2022/02/02 17:38:27;;;;;;;;;;;7.90;99.90;;;;;;5231726;27;20000;-81
2022/02/02 17:44:00;;;;;;;;;;;7.90;99.90;;;;;;5195077;27;20006;-81
2022/02/02 18:15:46;;;;;;;;;;;7.90;99.90;;;;;;5196687;27;20004;-81
2022/02/02 18:20:03;;;;;;;;;;;7.90;99.90;;;;;;5193882;27;36636;-81
2022/02/02 18:22:37;;;;;;;;;;;7.90;99.90;;;;;;5176326;27;45460;-81
2022/02/02 18:25:20;;;;;;;;;;;7.90;99.90;;;;;;5195085;27;27884;-81
2022/02/02 18:33:08;;;;;;;;;;;7.90;99.90;;;;;;5175981;27;41605;-81
2022/02/02 18:35:40;;;;;;;;;;;7.90;99.90;;;;;;5194811;27;19993;-81
2022/02/02 19:15:25;;;;;;;;;;;8.00;99.90;;;;;;5174545;27;20000;-81
2022/02/02 19:56:58;;;;;;;;;;;8.00;99.90;;;;;;5165360;27;20386;-81
2022/02/02 20:05:06;;;;;;;;;;;8.00;99.90;;;;;;5174282;27;38212;-81
2022/02/02 20:10:29;;;;;;;;;;;8.00;99.90;;;;;;5174052;27;43669;-81
2022/02/02 20:12:59;;;;;;;;;;;8.00;99.90;;;;;;5174430;27;34106;-81
2022/02/02 20:15:26;;;;;;;;;;;8.00;99.90;;;;;;5172818;27;21556;-81
2022/02/02 20:17:56;;;;;;;;;;;8.00;99.90;;;;;;5173627;27;33241;-80
2022/02/02 20:20:24;;;;;;;;;;;8.00;99.90;;;;;;5171861;27;44628;-81
2022/02/02 20:22:51;;;;;;;;;;;8.00;99.90;;;;;;5172362;27;36382;-80
2022/02/02 20:25:27;;;;;;;;;;;8.00;99.90;;;;;;5173801;27;20011;-81
2022/02/02 20:28:04;;;;;;;;;;;8.00;99.90;;;;;;5155159;27;37198;-81
2022/02/02 20:30:32;;;;;;;;;;;8.00;99.90;;;;;;5174892;27;20000;-81
2022/02/02 20:33:05;;;;;;;;;;;8.00;99.90;;;;;;5190255;27;33037;-81
2022/02/02 20:35:32;;;;;;;;;;;8.00;99.90;;;;;;5190277;27;33118;-81
2022/02/02 20:38:05;;;;;;;;;;;8.00;99.90;;;;;;5171849;27;45671;-81
2022/02/02 20:40:32;;;;;;;;;;;8.00;99.90;;;;;;5173771;27;25326;-80
2022/02/02 21:15:30;;;;;;;;;;;8.00;99.90;;;;;;5171918;27;44432;-81
2022/02/02 21:18:05;;;;;;;;;;;8.00;99.90;;;;;;5226859;27;36606;-81
2022/02/02 21:20:51;;;;;;;;;;;8.00;99.90;;;;;;5172358;27;44747;-81
2022/02/02 21:28:44;;;;;;;;;;;8.00;99.90;;;;;;5173772;27;44499;-81
2022/02/02 21:31:14;;;;;;;;;;;8.00;99.90;;;;;;5174354;27;35310;-81
2022/02/02 21:33:41;;;;;;;;;;;8.00;99.90;;;;;;5174455;27;39740;-81
2022/02/02 21:36:13;;;;;;;;;;;8.00;99.90;;;;;;5176121;27;20012;-81
2022/02/02 21:41:34;;;;;;;;;;;8.00;99.90;;;;;;5175402;27;44775;-81
2022/02/02 21:44:03;;;;;;;;;;;8.00;99.90;;;;;;5173230;27;43454;-81
2022/02/02 21:46:57;;;;;;;;;;;8.00;99.90;;;;;;5190839;27;29316;-81
2022/02/02 21:49:30;;;;;;;;;;;8.00;99.90;;;;;;5175022;27;20048;-81
2022/02/02 21:52:08;;;;;;;;;;;8.00;99.90;;;;;;5175161;27;20001;-80
2022/02/02 21:54:38;;;;;;;;;;;8.10;99.90;;;;;;5174669;27;20456;-81
2022/02/02 21:57:06;;;;;;;;;;;8.00;99.90;;;;;;5174341;27;20019;-81
2022/02/02 21:59:38;;;;;;;;;;;8.00;99.90;;;;;;5229046;27;20017;-81
2022/02/02 22:02:08;;;;;;;;;;;8.00;99.90;;;;;;5174378;27;20445;-81
2022/02/02 22:04:35;;;;;;;;;;;8.00;99.90;;;;;;5175412;27;20006;-81
2022/02/02 22:07:17;;;;;;;;;;;8.00;99.90;;;;;;5174821;27;20022;-81
2022/02/02 22:09:53;;;;;;;;;;;8.00;99.90;;;;;;5174759;27;20010;-81
2022/02/02 22:12:25;;;;;;;;;;;8.00;99.90;;;;;;5174849;27;20004;-81
2022/02/02 22:14:54;;;;;;;;;;;8.00;99.90;;;;;;5176654;27;20004;-81
2022/02/02 22:17:23;;;;;;;;;;;8.00;99.90;;;;;;5174103;27;19996;-81
2022/02/02 22:20:02;;;;;;;;;;;8.00;99.90;;;;;;5190894;27;20055;-81
2022/02/02 22:22:38;;;;;;;;;;;8.00;99.90;;;;;;5156671;27;20403;-81
2022/02/02 22:25:09;;;;;;;;;;;8.00;99.90;;;;;;5174878;27;20000;-80
2022/02/02 22:27:42;;;;;;;;;;;8.00;99.90;;;;;;5175157;27;20014;-81
2022/02/02 22:30:15;;;;;;;;;;;8.10;99.90;;;;;;5174297;27;20044;-81
2022/02/02 22:32:44;;;;;;;;;;;8.00;99.90;;;;;;5175342;27;26668;-81
2022/02/02 22:35:12;;;;;;;;;;;8.00;99.90;;;;;;5172753;27;36833;-81
2022/02/02 22:37:39;;;;;;;;;;;8.00;99.90;;;;;;5173315;27;24420;-81
2022/02/02 22:40:16;;;;;;;;;;;8.00;99.90;;;;;;5175080;27;19992;-81
2022/02/02 22:42:47;;;;;;;;;;;8.00;99.90;;;;;;5172940;27;39579;-81
2022/02/02 22:45:14;;;;;;;;;;;8.10;99.90;;;;;;5155514;27;44623;-81
2022/02/02 22:47:45;;;;;;;;;;;8.00;99.90;;;;;;5173407;27;36654;-81
2022/02/02 22:50:13;;;;;;;;;;;8.10;99.90;;;;;;5173440;27;19996;-81
2022/02/02 22:52:42;;;;;;;;;;;8.10;99.90;;;;;;5174344;27;42692;-81
2022/02/02 22:55:12;;;;;;;;;;;8.00;99.90;;;;;;5156950;27;19994;-80
2022/02/02 22:57:40;;;;;;;;;;;8.00;99.90;;;;;;5175747;27;20010;-80
2022/02/02 23:00:10;;;;;;;;;;;8.10;99.90;;;;;;5175089;27;20011;-80
2022/02/02 23:05:23;;;;;;;;;;;8.10;99.90;;;;;;5190318;27;39458;-81
2022/02/02 23:07:53;;;;;;;;;;;8.10;99.90;;;;;;5173309;27;44930;-81
2022/02/02 23:10:21;;;;;;;;;;;8.10;99.90;;;;;;5191585;27;20034;-81
2022/02/02 23:12:48;;;;;;;;;;;8.10;99.90;;;;;;5155585;27;41837;-81
2022/02/02 23:15:28;;;;;;;;;;;8.10;99.90;;;;;;5173932;27;31572;-81
2022/02/02 23:18:03;;;;;;;;;;;8.00;99.90;;;;;;5173549;27;37047;-81
2022/02/02 23:20:32;;;;;;;;;;;8.10;99.90;;;;;;5155045;27;44721;-81
2022/02/02 23:23:02;;;;;;;;;;;8.10;99.90;;;;;;5174743;27;34506;-81
2022/02/02 23:25:30;;;;;;;;;;;8.10;99.90;;;;;;5173765;27;19992;-81
2022/02/02 23:27:58;;;;;;;;;;;8.10;99.90;;;;;;5173057;27;25905;-81
2022/02/02 23:30:25;;;;;;;;;;;8.10;99.90;;;;;;5190493;27;34237;-81
2022/02/02 23:32:53;;;;;;;;;;;8.10;99.90;;;;;;5172676;27;32862;-81
2022/02/02 23:35:20;;;;;;;;;;;8.10;99.90;;;;;;5172314;27;44627;-81
2022/02/02 23:37:47;;;;;;;;;;;8.10;99.90;;;;;;5191116;27;20178;-81
2022/02/02 23:40:20;;;;;;;;;;;8.10;99.90;;;;;;5173703;27;20000;-82
2022/02/02 23:42:47;;;;;;;;;;;8.10;99.90;;;;;;5174369;27;41249;-81
2022/02/02 23:45:23;;;;;;;;;;;8.10;99.90;;;;;;5157211;27;19999;-81
2022/02/02 23:47:52;;;;;;;;;;;8.10;99.90;;;;;;5175140;27;19992;-81
2022/02/02 23:50:22;;;;;;;;;;;8.10;99.90;;;;;;5174270;27;20023;-81
2022/02/02 23:52:55;;;;;;;;;;;8.10;99.90;;;;;;5173667;27;20015;-80
2022/02/02 23:55:31;;;;;;;;;;;8.10;99.90;;;;;;5172293;27;37226;-81
2022/02/02 23:58:14;;;;;;;;;;;8.10;99.90;;;;;;5172902;27;26966;-81
